createdAt,value
2019-04-07T00:03:06.875Z,9.95
2019-04-07T00:08:12.233Z,10.80
2019-04-07T00:13:17.286Z,10.08
2019-04-07T00:18:22.405Z,10.85
2019-04-07T00:23:27.301Z,10.45
2019-04-07T00:28:33.296Z,10.25
2019-04-07T00:33:38.222Z,9.93
2019-04-07T00:38:42.977Z,10.85
2019-04-07T00:43:47.847Z,11.03
2019-04-07T00:48:52.965Z,10.32
2019-04-07T00:53:57.888Z,10.80
2019-04-07T00:59:02.872Z,11.10
2019-04-07T01:04:07.559Z,11.18
2019-04-07T01:09:12.470Z,11.05
2019-04-07T01:14:17.228Z,10.05
2019-04-07T01:19:22.661Z,10.82
2019-04-07T01:24:27.749Z,12.00
2019-04-07T01:29:33.226Z,10.15
2019-04-07T01:34:38.015Z,10.03
2019-04-07T01:39:42.762Z,10.82
2019-04-07T01:45:12.799Z,10.35
2019-04-07T01:50:24.069Z,10.40
2019-04-07T01:55:37.761Z,10.63
2019-04-07T02:01:03.657Z,10.40
2019-04-07T02:06:28.601Z,10.55
2019-04-07T02:11:42.890Z,10.20
2019-04-07T02:16:53.093Z,10.65
2019-04-07T02:22:23.847Z,9.88
2019-04-07T02:27:39.638Z,9.78
2019-04-07T02:32:54.401Z,10.53
2019-04-07T02:38:04.455Z,10.70
2019-04-07T02:43:28.419Z,10.67
2019-04-07T02:48:57.791Z,10.40
2019-04-07T02:54:11.125Z,10.48
2019-04-07T02:59:23.814Z,11.08
2019-04-07T03:04:47.767Z,10.40
2019-04-07T03:09:58.743Z,10.43
2019-04-07T03:15:12.988Z,10.55
2019-04-07T03:20:36.291Z,10.23
2019-04-07T03:25:52.613Z,10.50
2019-04-07T03:31:07.978Z,10.93
2019-04-07T03:36:28.936Z,10.10
2019-04-07T03:41:56.717Z,11.63
2019-04-07T03:47:23.470Z,11.08
2019-04-07T03:52:46.979Z,10.82
2019-04-07T03:58:12.097Z,11.03
2019-04-07T04:03:40.648Z,11.50
2019-04-07T04:08:57.266Z,10.80
2019-04-07T04:14:13.365Z,11.50
2019-04-07T04:19:19.206Z,11.78
2019-04-07T04:24:23.939Z,11.40
2019-04-07T04:29:29.801Z,10.55
2019-04-07T04:34:34.718Z,12.63
2019-04-07T04:39:39.622Z,11.73
2019-04-07T04:44:44.712Z,12.00
2019-04-07T04:49:52.651Z,11.83
2019-04-07T04:54:57.790Z,11.75
2019-04-07T05:00:03.885Z,11.37
2019-04-07T05:05:11.007Z,11.67
2019-04-07T05:10:16.966Z,12.18
2019-04-07T05:15:23.007Z,11.63
2019-04-07T05:20:28.487Z,11.73
2019-04-07T05:25:33.785Z,12.10
2019-04-07T05:30:39.940Z,12.37
2019-04-07T05:35:45.001Z,12.47
2019-04-07T05:40:50.017Z,11.97
2019-04-07T05:45:55.483Z,12.58
2019-04-07T05:51:01.104Z,12.20
2019-04-07T05:56:06.233Z,12.23
2019-04-07T06:01:11.698Z,11.45
2019-04-07T06:06:19.102Z,11.97
2019-04-07T06:11:24.815Z,11.77
2019-04-07T06:16:29.917Z,12.47
2019-04-07T06:21:34.845Z,11.70
2019-04-07T06:26:42.151Z,12.33
2019-04-07T06:31:47.098Z,11.75
2019-04-07T06:36:55.267Z,11.95
2019-04-07T06:42:00.419Z,12.23
2019-04-07T06:47:15.617Z,13.40
2019-04-07T06:52:30.266Z,11.53
2019-04-07T06:57:46.694Z,12.18
2019-04-07T07:03:22.752Z,12.50
2019-04-07T07:08:58.737Z,12.78
2019-04-07T07:14:32.943Z,13.75
2019-04-07T07:19:41.447Z,13.10
2019-04-07T07:24:47.291Z,13.28
2019-04-07T07:29:54.692Z,12.43
2019-04-07T07:35:00.225Z,12.33
2019-04-07T07:40:08.442Z,12.18
2019-04-07T07:45:13.675Z,11.28
2019-04-07T07:50:19.122Z,11.50
2019-04-07T07:55:24.051Z,11.93
2019-04-07T08:00:30.927Z,10.63
2019-04-07T08:05:36.589Z,10.50
2019-04-07T08:10:41.591Z,10.23
2019-04-07T08:15:46.939Z,10.72
2019-04-07T08:20:52.223Z,11.18
2019-04-07T08:25:57.904Z,10.55
2019-04-07T08:31:04.414Z,9.68
2019-04-07T08:36:11.665Z,9.68
2019-04-07T08:41:16.700Z,9.65
2019-04-07T08:46:22.412Z,9.60
2019-04-07T08:51:27.434Z,9.78
2019-04-07T08:56:34.166Z,8.73
2019-04-07T09:01:39.056Z,8.28
2019-04-07T09:06:43.883Z,8.95
2019-04-07T09:11:52.982Z,7.95
2019-04-07T09:17:29.270Z,7.83
2019-04-07T09:22:34.620Z,8.50
2019-04-07T09:27:57.337Z,9.13
2019-04-07T09:33:30.862Z,7.95
2019-04-07T09:38:51.317Z,8.48
2019-04-07T09:44:37.557Z,7.92
2019-04-07T09:49:59.409Z,7.70
2019-04-07T09:55:13.241Z,7.92
2019-04-07T10:00:25.698Z,7.65
2019-04-07T10:06:02.099Z,7.55
2019-04-07T10:11:16.060Z,8.03
2019-04-07T10:16:31.278Z,7.45
2019-04-07T10:21:45.231Z,7.37
2019-04-07T10:27:08.128Z,7.75
2019-04-07T10:32:30.782Z,7.55
2019-04-07T10:37:46.086Z,7.40
2019-04-07T10:43:08.533Z,7.45
2019-04-07T10:48:24.374Z,7.20
2019-04-07T10:53:40.623Z,7.10
2019-04-07T10:59:04.279Z,6.97
2019-04-07T11:04:27.431Z,7.58
2019-04-07T11:09:54.308Z,6.92
2019-04-07T11:15:25.977Z,6.58
2019-04-07T11:20:53.044Z,6.97
2019-04-07T11:26:14.617Z,5.85
2019-04-07T11:31:31.040Z,5.40
2019-04-07T11:36:54.496Z,6.33
2019-04-07T11:42:17.036Z,6.53
2019-04-07T11:47:28.620Z,5.97
2019-04-07T11:52:46.198Z,5.95
2019-04-07T11:58:28.821Z,6.80
2019-04-07T12:03:46.470Z,6.00
2019-04-07T12:09:25.887Z,6.53
2019-04-07T12:14:55.572Z,6.67
2019-04-07T12:20:17.969Z,6.70
2019-04-07T12:25:37.323Z,6.40
2019-04-07T12:31:05.094Z,5.92
2019-04-07T12:36:29.468Z,5.40
2019-04-07T12:41:42.579Z,5.78
2019-04-07T12:47:10.226Z,6.10
2019-04-07T12:52:32.227Z,4.95
2019-04-07T12:57:54.575Z,4.90
2019-04-07T13:20:32.527Z,7.37
2019-04-07T13:25:55.645Z,6.05
2019-04-07T13:31:18.114Z,6.35
2019-04-07T13:36:30.140Z,5.72
2019-04-07T13:41:45.861Z,6.72
2019-04-07T13:47:07.322Z,6.08
2019-04-07T13:52:29.036Z,4.67
2019-04-07T13:57:41.070Z,6.05
2019-04-07T14:03:07.356Z,5.15
2019-04-07T14:08:30.669Z,5.58
2019-04-07T14:13:43.158Z,5.40
2019-04-07T14:19:25.333Z,5.53
2019-04-07T14:24:38.294Z,4.58
2019-04-07T14:29:58.974Z,4.42
2019-04-07T14:35:22.622Z,6.05
2019-04-07T14:40:32.220Z,5.87
2019-04-07T14:45:56.809Z,4.92
2019-04-07T14:51:19.614Z,4.40
2019-04-07T14:56:42.188Z,5.17
2019-04-07T15:02:00.018Z,5.20
2019-04-07T15:07:34.555Z,4.83
2019-04-07T15:12:44.142Z,4.87
2019-04-07T15:17:49.055Z,5.17
2019-04-07T15:22:53.959Z,6.20
2019-04-07T15:28:00.425Z,6.08
2019-04-07T15:33:06.091Z,5.95
2019-04-07T15:38:11.501Z,5.15
2019-04-07T15:43:17.018Z,5.87
2019-04-07T15:48:25.751Z,5.10
2019-04-07T15:53:28.666Z,5.53
2019-04-07T15:58:35.472Z,5.53
2019-04-07T16:03:40.838Z,6.30
2019-04-07T16:08:46.918Z,5.03
2019-04-07T16:13:54.035Z,6.22
2019-04-07T16:18:59.356Z,6.53
2019-04-07T16:24:05.104Z,4.95
2019-04-07T16:29:10.359Z,5.90
2019-04-07T16:34:16.530Z,6.15
2019-04-07T16:39:21.446Z,5.75
2019-04-07T16:44:26.684Z,6.03
2019-04-07T16:49:32.620Z,6.20
2019-04-07T16:54:41.736Z,5.92
2019-04-07T16:59:44.678Z,6.75
2019-04-07T17:04:50.455Z,6.47
2019-04-07T17:09:57.435Z,5.85
2019-04-07T17:15:04.536Z,6.53
2019-04-07T17:20:09.998Z,6.30
2019-04-07T17:25:15.322Z,7.15
2019-04-07T17:30:24.275Z,6.20
2019-04-07T17:35:28.533Z,6.72
2019-04-07T17:40:37.814Z,6.25
2019-04-07T17:46:02.280Z,6.20
2019-04-07T17:51:25.059Z,7.33
2019-04-07T17:57:06.520Z,6.70
2019-04-07T18:02:34.683Z,7.47
2019-04-07T18:08:13.423Z,7.72
2019-04-07T18:13:45.018Z,8.35
2019-04-07T18:19:02.641Z,8.13
2019-04-07T18:24:30.842Z,8.48
2019-04-07T18:29:55.036Z,7.92
2019-04-07T18:35:07.950Z,7.53
2019-04-07T18:40:44.298Z,8.05
2019-04-07T18:46:07.343Z,8.80
2019-04-07T18:51:22.013Z,8.90
2019-04-07T18:56:40.401Z,7.67
2019-04-07T19:02:15.106Z,7.65
2019-04-07T19:07:35.771Z,8.30
2019-04-07T19:13:01.950Z,8.63
2019-04-07T19:18:16.359Z,8.98
2019-04-07T19:23:31.244Z,10.23
2019-04-07T19:28:56.020Z,8.78
2019-04-07T19:34:20.521Z,8.63
2019-04-07T19:45:09.225Z,9.25
2019-04-07T19:50:33.315Z,9.18
2019-04-07T19:55:55.525Z,9.08
2019-04-07T20:01:27.356Z,8.53
2019-04-07T20:06:39.812Z,9.58
2019-04-07T20:11:54.729Z,11.15
2019-04-07T20:17:22.419Z,9.85
2019-04-07T20:22:50.162Z,9.78
2019-04-07T20:28:08.878Z,8.33
2019-04-07T20:33:33.184Z,7.22
2019-04-07T20:38:58.595Z,8.35
2019-04-07T20:44:26.989Z,7.95
2019-04-07T20:49:48.222Z,7.22
2019-04-07T20:55:12.091Z,7.83
2019-04-07T21:00:52.893Z,7.15
2019-04-07T21:06:06.670Z,7.95
2019-04-07T21:11:29.203Z,8.15
2019-04-07T21:17:01.324Z,8.15
2019-04-07T21:22:18.553Z,8.07
2019-04-07T21:27:38.743Z,8.48
2019-04-07T21:33:12.071Z,8.30
2019-04-07T21:38:40.073Z,8.15
2019-04-07T21:44:04.389Z,7.95
2019-04-07T21:49:22.841Z,7.80
2019-04-07T21:54:44.051Z,8.03
2019-04-07T22:00:06.925Z,8.50
2019-04-07T22:05:17.955Z,8.08
2019-04-07T22:10:23.063Z,7.75
2019-04-07T22:15:40.587Z,8.45
2019-04-07T22:20:34.930Z,8.48
2019-04-07T22:25:51.153Z,8.73
2019-04-07T22:30:57.262Z,8.53
2019-04-07T22:36:02.301Z,8.68
2019-04-07T22:41:08.863Z,8.33
2019-04-07T22:46:19.500Z,8.75
2019-04-07T22:51:20.907Z,8.63
2019-04-07T22:56:25.699Z,8.78
2019-04-07T23:01:31.307Z,8.58
2019-04-07T23:06:36.556Z,9.43
2019-04-07T23:11:42.476Z,8.75
2019-04-07T23:16:47.222Z,8.33
2019-04-07T23:21:51.988Z,9.30
2019-04-07T23:26:57.192Z,8.55
2019-04-07T23:32:02.155Z,8.23
2019-04-07T23:37:08.153Z,8.23
2019-04-07T23:42:12.935Z,8.43
2019-04-07T23:47:17.975Z,8.65
2019-04-07T23:52:23.006Z,9.05
2019-04-07T23:57:28.059Z,8.70
